Tropical Cyclones
[Index]
Main Index Home Page Stock Weather Photos Extreme Storms Discussion Storm News and Storm Chasing Reports Tropical Cyclones / Hurricanes / Typhoons Weather Data and Links Wild Fires / Bushfires Weather Observation Techniques Weather Picture Catalogue Tornado Pictures and Reports Stock Video Footage and DVDs for sale
Season 1989-1990 Tropical Cyclone TINA Track Map
Season 1989-1990 Summaries: [BoM-AU] [JTWC-AU] [JTWC-SIO] [JTWC-SPAC] [JTWC-SH]
<<- Previous TC | BoM 1989-1990 Season | Next TC ->>

click for intensity scale information  Lat/long Grid: Show Hide

 Date Labels: Show Hide

Bureau of Meteorology Tropical Cyclone Data

Name: TINA
Number: 732 / 198990_13

24 Jan 1990 01:00 UTC to 28 Jan 1990 10:00 UTC

    date/time    lat    long    hPa   cat  kts
1990-01-24 01   14.3   117.0   1002         19          
1990-01-24 06   14.3   116.6   1000         19          
1990-01-24 09   14.9   116.3   1000         19          
1990-01-24 16   15.3   115.5   1000         19          
1990-01-25 01   15.8   114.4    999         21          
1990-01-25 06   15.9   113.9    994    1    25          
1990-01-25 09   16.0   113.6    993    1    29          
1990-01-25 16   16.3   113.6    991    1    31          
1990-01-26 01   16.8   113.5    988    1    35          
1990-01-26 06   17.0   112.9    985    2    37          
1990-01-26 14   18.2   112.6    984    2    37          
1990-01-26 16   18.5   112.7    982    2    41          
1990-01-26 19   18.8   113.0    979    2    45          
1990-01-27 01   19.6   113.4    976    2    49          
1990-01-27 06   20.6   113.7    973    2    51          
1990-01-27 09   21.2   113.8    972    2    52          
1990-01-27 10   21.3   113.8    972    2    52          
1990-01-27 16   22.7   114.1    978    2    51          
1990-01-28 01   25.1   115.2    980    2    49          
1990-01-28 06   26.7   115.7    984    2    43          
1990-01-28 10   29.7   117.3    987    1    39          
Winds are 10-min average.

Tropical cyclone tracks developed by Michael Bath using data from the Bureau of Meteorology and Google Maps.


[Australian Severe Weather index] [Copyright Notice] [Email Contacts] [Search This Site] [Privacy Policy]
Document: tropical_cyclone_tina.htm Updated: 30 May 2013